KCDS/CDS METAR and TAF weather

Enter ICAO airport designator
Station Type Date Time Source
KCDS METAR 2018/07/21 03:53 UTC NOAA

KCDS 210353Z AUTO 18008KT 10SM CLR 32/10 A2992 RMK AO2 SLP097 T03220100


Station Type Date Time Source
KCDS Decoded METAR 2018/07/21 03:53 UTC NOAA

CHILDRESS MUNICIPAL AIRPORT, TX, United States (KCDS) 34-26N 100-17W 594M
Jul 20, 2018 - 11:53 PM EDT / 2018.07.21 0353 UTC
Wind: from the S (180 degrees) at 9 MPH (8 KT):0
Visibility: 10 mile(s):0
Sky conditions: clear
Temperature: 90.0 F (32.2 C)
Dew Point: 50.0 F (10.0 C)
Relative Humidity: 25%
Pressure (altimeter): 29.92 in. Hg (1013 hPa)
ob: KCDS 210353Z AUTO 18008KT 10SM CLR 32/10 A2992 RMK AO2 SLP097 T03220100
cycle: 4

Station Type Date Time Source
KCDS TAF 2018/07/20 18:22 UTC NOAA

TAF KCDS 201720Z 2018/2118 23011KT P6SM FEW250


Example: see airport list